Dawson Community Airport
KGDV : now visible

Airfield :











YOU CAN JOIN US ON...

 
LOGIN :

Register | Disclaimer

   EN    FR    IT 

 









Legend :    VFR   Marginal VFR   IFR   Intensive IFR   Very Intensive IFR
Visi :
Ceiling :
>= 8 km
>= 3000ft
5 to 8 km
1000 to 3000 ft
1500m to 5 km
500 to 1000 ft
800 to 1500m
200 to 500 ft
< 800m
< 200 ft
Symbols :   Thunderstorms  Fog  Heavy snow  Heavy precipitations  Wind > 20 kt






- Airport Elevation : 2458 ft


KGDV - Dawson Community

CURRENT METAR :
  • 130956Z AUTO 00000KT 10SM OVC095 17/13 A2978 RMK AO2 RAE33 SLP060 P0000 T01670128

EXPIRED METARs :
  • 130856Z AUTO 32010KT 10SM -RA OVC100 19/10 A2980 RMK AO2 PK WND 32029/0757 RAB45 SLP068 P0000 60000 T01890100 50014
  • 130756Z AUTO 32020G25KT 10SM OVC110 21/08 A2982 RMK AO2 PK WND 32026/0744 RAE01 SLP073 P0000 T02110078

TAF KGDV
Valid from the 13 at 06:00 until the 14 at 06:00 UTC


130520Z 1306/1406 VRB06KT P6SM VCSH BKN100
FM130900 32009KT P6SM BKN100
TEMPO 1309/1312 6SM -SHRA BR OVC070
FM131200 29007KT P6SM VCSH BKN080
FM131600 28015G24KT P6SM FEW080
FM140200 32012KT P6SM FEW150
KZLC FIR / North America



MET'MAP, your aeronautical weather chart ! - Copyright ORBIFLY December 2007 - Disclaimer

ORBIFLY MET'MAP TEAM :

Programming & Development : Alexandra Zaïnal
Concept & original design : Baudouin d'Aumeries
Assistance for programming : Marc-Olivier Méhu
Technical & hardware support : Manuel Goepfert

Contact : metmap@orbifly.com




SOURCES & CREDITS :

   NOAA       Earth
Advisory